Flight Track Log - Related Links

Times and Time Zones

All times are in EDT time to prevent confusion due to time zone crossing. See the CPT8773 flight status page for this flight to view local times or setup timezone preferences in your user account.


Time Position Orientation Groundspeed Altitude Reporting Facility
EDT Latitude Longitude Course Direction KTS MPH feet Rate Location/Type
Wed 09:35:13 AM 42.9978 -106.4836 308° West 126 145 7,100  Level Denver Center
Wed 09:36:14 AM 43.0403 -106.5006 344° North 133 153 7,800 639 Climbing Denver Center
Wed 09:37:15 AM 43.0758 -106.5103 349° North 135 155 8,400 541 Climbing Denver Center
Wed 09:38:00 AM 43.0727 -106.2773 36° Northeast  Level FlightAware Approximate
Wed 09:38:16 AM 43.1158 -106.5228 347° North 134 154 8,900  Level Denver Center
Wed 09:39:00 AM 43.1016 -106.2986 308° West  Level FlightAware Approximate
Wed 09:39:18 AM 43.1500 -106.5331 348° North 133 153 9,400  Level Denver Center
Wed 09:40:00 AM 43.1280 -106.3448 308° West  Level FlightAware Approximate
Wed 09:40:19 AM 43.1853 -106.5419 350° North 132 152 9,800  Level Denver Center
Wed 09:41:20 AM 43.2269 -106.5539 348° North 134 154 10,300 443 Climbing Denver Center
Wed 09:42:21 AM 43.2581 -106.5725 336° Northwest 133 153 10,700 390 Climbing Denver Center
Wed 09:43:23 AM 43.2733 -106.6117 298° West 126 145 11,100 439 Climbing Denver Center
Wed 09:44:24 AM 43.2925 -106.6550 301° West 120 138 11,600 393 Climbing Denver Center
Wed 09:45:25 AM 43.3122 -106.6897 308° West 119 137 11,900 197 Climbing Denver Center
Wed 09:46:26 AM 43.3372 -106.7325 309° West 124 143 12,000 49 Climbing Denver Center
Wed 09:47:27 AM 43.3597 -106.7794 303° West 141 162 12,000  Level Denver Center
Wed 09:48:29 AM 43.3831 -106.8286 303° West 154 177 12,000  Level Denver Center
Wed 09:49:30 AM 43.4117 -106.8828 306° West 156 180 12,000  Level Denver Center
Wed 09:50:31 AM 43.4375 -106.9292 307° West 158 182 12,000  Level Denver Center
Wed 09:51:32 AM 43.4631 -106.9758 307° West 159 183 12,000  Level Denver Center
Wed 09:52:34 AM 43.4939 -107.0289 309° West 159 183 12,000  Level Denver Center
Wed 09:53:35 AM 43.5167 -107.0761 304° West 156 180 12,000  Level Denver Center
Wed 09:54:36 AM 43.5406 -107.1308 301° West 153 176 12,000  Level Denver Center
Wed 09:55:38 AM 43.5658 -107.1744 309° West 151 174 12,000 -47 Level Denver Center
Wed 09:56:43 AM 43.5961 -107.2289 308° West 154 177 11,900 -47 Descending Salt Lake Center
Wed 09:57:45 AM 43.6206 -107.2731 307° West 154 177 11,900  Level Salt Lake Center
Wed 09:58:46 AM 43.6475 -107.3275 304° West 153 176 11,900  Level Salt Lake Center
Wed 09:59:48 AM 43.6722 -107.3722 307° West 153 176 11,900  Level Salt Lake Center
Wed 10:00:50 AM 43.6983 -107.4164 309° West 154 177 11,900  Level Salt Lake Center
Wed 10:01:51 AM 43.7247 -107.4703 304° West 153 176 11,900  Level Salt Lake Center
Wed 10:02:53 AM 43.7483 -107.5167 305° West 153 176 11,900  Level Salt Lake Center
Wed 10:03:54 AM 43.7767 -107.5697 306° West 154 177 11,900  Level Salt Lake Center
Wed 10:04:56 AM 43.8011 -107.6158 306° West 154 177 11,900  Level Salt Lake Center
Wed 10:05:58 AM 43.8244 -107.6644 304° West 154 177 11,900  Level Salt Lake Center
Wed 10:06:59 AM 43.8536 -107.7142 309° West 153 176 11,900  Level Salt Lake Center
Wed 10:08:01 AM 43.8772 -107.7594 306° West 152 175 11,900  Level Salt Lake Center
Wed 10:09:02 AM 43.9047 -107.8144 305° West 154 177 11,900  Level Salt Lake Center
Wed 10:10:04 AM 43.9319 -107.8681 305° West 157 181 11,900  Level Salt Lake Center
Wed 10:12:00 AM 43.9825 -107.9641 306° West  Level FlightAware Approximate
Wed 10:19:00 AM 44.1648 -108.3130 306° West  Level FlightAware Approximate
Wed 10:20:00 AM 44.1902 -108.3636 305° West  Level FlightAware Approximate
Wed 10:21:00 AM 44.2155 -108.4143 305° West  Level FlightAware Approximate
Wed 10:22:00 AM 44.2408 -108.4650 305° West  Level FlightAware Approximate
Wed 10:23:00 AM 44.2662 -108.5156 305° West  Level FlightAware Approximate
Wed 10:24:00 AM 44.2916 -108.5663 305° West  Level FlightAware Approximate
Wed 10:25:00 AM 44.3169 -108.6171 305° West  Level FlightAware Approximate
Wed 10:26:00 AM 44.3423 -108.6678 305° West  Level FlightAware Approximate
Wed 10:27:00 AM 44.3669 -108.7193 303° West  Level FlightAware Approximate
Wed 10:28:00 AM 44.3911 -108.7712 303° West  Level FlightAware Approximate

Login

Don't have an account? Register now (free) for customized features, flight alerts, and more!